createdAt,value
2018-09-21T00:00:02.635Z,16.50
2018-09-21T00:02:31.594Z,16.47
2018-09-21T00:05:01.136Z,16.49
2018-09-21T00:07:30.012Z,16.51
2018-09-21T00:09:59.062Z,16.49
2018-09-21T00:12:28.423Z,16.51
2018-09-21T00:14:57.296Z,16.49
2018-09-21T00:17:26.241Z,16.44
2018-09-21T00:19:55.316Z,16.48
2018-09-21T00:22:24.145Z,16.42
2018-09-21T00:24:53.194Z,16.36
2018-09-21T00:27:23.233Z,16.27
2018-09-21T00:29:52.069Z,16.18
2018-09-21T00:32:20.930Z,16.13
2018-09-21T00:34:49.872Z,16.11
2018-09-21T00:37:18.903Z,16.14
2018-09-21T00:39:47.784Z,16.11
2018-09-21T00:42:18.188Z,16.05
2018-09-21T00:44:47.013Z,16.01
2018-09-21T00:47:16.049Z,15.97
2018-09-21T00:49:45.642Z,15.96
2018-09-21T00:52:14.599Z,15.92
2018-09-21T00:54:43.714Z,15.89
2018-09-21T00:57:13.320Z,15.82
2018-09-21T00:59:42.255Z,15.73
2018-09-21T01:02:11.085Z,15.70
2018-09-21T01:04:43.411Z,15.74
2018-09-21T01:07:14.011Z,15.83
2018-09-21T01:09:43.719Z,15.84
2018-09-21T01:12:12.630Z,15.83
2018-09-21T01:14:41.467Z,15.81
2018-09-21T01:17:10.506Z,15.74
2018-09-21T01:19:39.533Z,15.68
2018-09-21T01:22:08.552Z,15.62
2018-09-21T01:24:37.856Z,15.54
2018-09-21T01:27:06.687Z,15.46
2018-09-21T01:29:35.669Z,15.37
2018-09-21T01:32:04.922Z,15.30
2018-09-21T01:34:33.900Z,15.25
2018-09-21T01:37:02.904Z,15.23
2018-09-21T01:40:34.357Z,15.22
2018-09-21T01:43:03.316Z,15.17
2018-09-21T01:45:32.176Z,15.19
2018-09-21T01:48:01.592Z,15.23
2018-09-21T01:50:30.728Z,15.22
2018-09-21T01:52:59.855Z,15.24
2018-09-21T01:55:28.890Z,15.24
2018-09-21T01:57:58.057Z,15.26
2018-09-21T02:00:27.017Z,15.24
2018-09-21T02:02:56.293Z,15.20
2018-09-21T02:05:25.160Z,15.18
2018-09-21T02:07:54.075Z,15.13
2018-09-21T02:10:23.372Z,15.13
2018-09-21T02:12:53.221Z,15.10
2018-09-21T02:15:22.217Z,15.11
2018-09-21T02:17:51.452Z,15.10
2018-09-21T02:20:20.319Z,15.08
2018-09-21T02:22:49.208Z,15.06
2018-09-21T02:25:18.587Z,15.04
2018-09-21T02:27:47.888Z,15.05
2018-09-21T02:30:17.053Z,15.07
2018-09-21T02:32:46.114Z,15.11
2018-09-21T02:35:16.114Z,15.15
2018-09-21T02:37:45.421Z,15.16
2018-09-21T02:40:14.844Z,15.18
2018-09-21T02:42:43.787Z,15.16
2018-09-21T02:45:12.721Z,15.12
2018-09-21T02:47:41.993Z,15.10
2018-09-21T02:50:10.930Z,15.06
2018-09-21T02:52:39.692Z,15.07
2018-09-21T02:55:08.671Z,15.03
2018-09-21T02:57:37.548Z,15.03
2018-09-21T03:00:07.664Z,15.01
2018-09-21T03:02:36.710Z,15.02
2018-09-21T03:05:05.895Z,15.04
2018-09-21T03:07:34.833Z,15.01
2018-09-21T03:10:04.134Z,14.99
2018-09-21T03:12:33.215Z,14.94
2018-09-21T03:15:02.343Z,14.97
2018-09-21T03:17:31.741Z,14.87
2018-09-21T03:20:00.735Z,14.90
2018-09-21T03:22:29.903Z,14.95
2018-09-21T03:24:58.801Z,14.95
2018-09-21T03:27:27.826Z,14.89
2018-09-21T03:29:57.051Z,14.87
2018-09-21T03:32:26.526Z,14.83
2018-09-21T03:34:55.372Z,14.84
2018-09-21T03:37:24.301Z,14.84
2018-09-21T03:39:53.781Z,14.86
2018-09-21T03:42:22.851Z,14.86
2018-09-21T03:44:51.905Z,14.90
2018-09-21T03:47:21.164Z,14.91
2018-09-21T03:49:50.205Z,14.88
2018-09-21T03:52:19.372Z,14.84
2018-09-21T03:54:48.334Z,14.82
2018-09-21T03:57:17.231Z,14.80
2018-09-21T03:59:46.165Z,14.80
2018-09-21T04:02:15.186Z,14.77
2018-09-21T04:04:44.086Z,14.82
2018-09-21T04:07:13.044Z,14.85
2018-09-21T04:09:42.479Z,14.88
2018-09-21T04:12:11.288Z,14.91
2018-09-21T04:14:40.317Z,14.93
2018-09-21T04:17:09.566Z,14.88
2018-09-21T04:19:40.659Z,14.83
2018-09-21T04:22:11.040Z,14.86
2018-09-21T04:24:39.871Z,14.87
2018-09-21T04:27:08.952Z,14.86
2018-09-21T04:29:38.488Z,14.94
2018-09-21T04:32:07.543Z,15.00
2018-09-21T04:34:37.641Z,15.15
2018-09-21T04:37:06.893Z,15.21
2018-09-21T04:39:36.004Z,15.25
2018-09-21T04:42:05.170Z,15.32
2018-09-21T04:44:34.443Z,15.39
2018-09-21T04:47:03.373Z,15.50
2018-09-21T04:49:32.353Z,15.59
2018-09-21T04:52:01.737Z,15.67
2018-09-21T04:54:30.754Z,15.80
2018-09-21T04:56:59.812Z,15.91
2018-09-21T04:59:29.248Z,15.97
2018-09-21T05:01:58.211Z,16.02
2018-09-21T05:04:27.228Z,16.07
2018-09-21T05:06:56.268Z,16.06
2018-09-21T05:09:25.263Z,16.13
2018-09-21T05:11:54.424Z,16.17
2018-09-21T05:14:23.859Z,16.22
2018-09-21T05:16:52.848Z,16.22
2018-09-21T05:19:22.056Z,16.32
2018-09-21T05:21:51.553Z,16.39
2018-09-21T05:24:20.717Z,16.43
2018-09-21T05:26:49.790Z,16.46
2018-09-21T05:29:19.155Z,16.56
2018-09-21T05:31:48.115Z,16.54
2018-09-21T05:34:18.042Z,16.62
2018-09-21T05:36:47.473Z,16.66
2018-09-21T05:41:53.350Z,16.74
2018-09-21T05:44:22.405Z,16.90
2018-09-21T05:46:51.426Z,16.98
2018-09-21T05:49:20.482Z,17.03
2018-09-21T05:51:49.736Z,17.07
2018-09-21T05:54:18.698Z,17.18
2018-09-21T05:56:48.541Z,17.21
2018-09-21T05:59:17.822Z,17.35
2018-09-21T06:01:46.740Z,17.46
2018-09-21T06:04:15.690Z,17.63
2018-09-21T06:06:44.948Z,17.79
2018-09-21T06:09:14.752Z,17.92
2018-09-21T06:11:43.847Z,17.93
2018-09-21T06:14:13.537Z,18.12
2018-09-21T06:16:42.600Z,18.29
2018-09-21T06:19:12.083Z,18.14
2018-09-21T06:21:41.222Z,18.40
2018-09-21T06:24:10.613Z,18.56
2018-09-21T06:26:39.809Z,18.74
2018-09-21T06:29:08.892Z,18.87
2018-09-21T06:31:38.276Z,18.96
2018-09-21T06:34:07.177Z,19.04
2018-09-21T06:36:36.234Z,19.20
2018-09-21T06:39:08.641Z,19.22
2018-09-21T06:41:37.841Z,19.32
2018-09-21T06:44:07.331Z,19.54
2018-09-21T06:46:36.935Z,19.65
2018-09-21T06:49:05.903Z,19.72
2018-09-21T06:51:35.098Z,19.81
2018-09-21T06:54:04.411Z,20.00
2018-09-21T06:56:33.418Z,20.11
2018-09-21T06:59:02.419Z,20.16
2018-09-21T07:01:31.719Z,20.33
2018-09-21T07:04:00.813Z,20.38
2018-09-21T07:06:29.638Z,20.54
2018-09-21T07:08:58.959Z,20.64
2018-09-21T07:11:27.993Z,20.75
2018-09-21T07:13:57.273Z,20.96
2018-09-21T07:16:26.865Z,20.91
2018-09-21T07:18:55.937Z,20.81
2018-09-21T07:21:25.056Z,20.96
2018-09-21T07:23:55.299Z,21.01
2018-09-21T07:26:24.415Z,21.23
2018-09-21T07:28:53.326Z,21.39
2018-09-21T07:31:22.666Z,21.51
2018-09-21T07:33:51.627Z,21.67
2018-09-21T07:36:20.629Z,21.77
2018-09-21T07:38:49.922Z,21.83
2018-09-21T07:41:19.119Z,21.89
2018-09-21T07:43:48.686Z,22.09
2018-09-21T07:46:17.685Z,22.36
2018-09-21T07:48:46.837Z,22.60
2018-09-21T07:51:15.904Z,22.80
2018-09-21T07:53:45.541Z,22.96
2018-09-21T07:56:14.430Z,23.13
2018-09-21T07:58:45.351Z,23.19
2018-09-21T08:01:14.263Z,23.15
2018-09-21T08:03:43.349Z,23.20
2018-09-21T08:06:12.208Z,22.89
2018-09-21T08:08:41.196Z,23.12
2018-09-21T08:11:10.200Z,23.46
2018-09-21T08:13:39.302Z,23.47
2018-09-21T08:16:08.131Z,23.63
2018-09-21T08:18:37.141Z,23.78
2018-09-21T08:21:06.540Z,23.97
2018-09-21T08:23:35.531Z,24.15
2018-09-21T08:26:04.606Z,24.22
2018-09-21T08:28:34.025Z,24.20
2018-09-21T08:31:02.892Z,23.92
2018-09-21T08:33:31.845Z,24.01
2018-09-21T08:36:01.221Z,23.99
2018-09-21T08:38:30.909Z,23.99
2018-09-21T08:40:59.944Z,24.09
2018-09-21T08:43:28.915Z,24.16
2018-09-21T08:45:58.001Z,24.22
2018-09-21T08:48:27.091Z,24.53
2018-09-21T08:50:56.253Z,24.59
2018-09-21T08:53:25.201Z,24.48
2018-09-21T08:55:54.160Z,24.74
2018-09-21T08:58:23.568Z,24.99
2018-09-21T09:00:52.564Z,25.21
2018-09-21T09:03:24.380Z,24.91
2018-09-21T09:05:54.488Z,24.91
2018-09-21T09:08:24.883Z,25.23
2018-09-21T09:10:54.337Z,25.25
2018-09-21T09:13:23.265Z,25.33
2018-09-21T09:15:52.416Z,25.46
2018-09-21T09:18:21.437Z,25.50
2018-09-21T09:20:50.356Z,25.26
2018-09-21T09:23:20.503Z,24.81
2018-09-21T09:25:49.558Z,25.05
2018-09-21T09:28:19.326Z,25.32
2018-09-21T09:30:48.982Z,25.67
2018-09-21T09:33:18.003Z,26.04
2018-09-21T09:35:46.976Z,26.26
2018-09-21T09:38:16.428Z,26.51
2018-09-21T09:40:46.563Z,26.75
2018-09-21T09:43:16.069Z,26.75
2018-09-21T09:45:44.910Z,26.84
2018-09-21T09:48:13.862Z,25.84
2018-09-21T09:50:43.516Z,25.81
2018-09-21T09:53:12.474Z,25.82
2018-09-21T09:55:41.452Z,25.84
2018-09-21T09:58:10.542Z,26.10
2018-09-21T10:00:44.590Z,25.90
2018-09-21T10:03:13.608Z,25.89
2018-09-21T10:05:42.775Z,25.62
2018-09-21T10:08:12.914Z,25.93
2018-09-21T10:10:42.221Z,25.90
2018-09-21T10:13:11.428Z,25.98
2018-09-21T10:15:40.858Z,26.21
2018-09-21T10:18:10.933Z,26.38
2018-09-21T10:20:40.090Z,26.38
2018-09-21T10:23:09.233Z,26.22
2018-09-21T10:32:24.310Z,26.22
2018-09-21T10:34:53.331Z,26.50
2018-09-21T10:37:22.299Z,26.28
2018-09-21T10:39:51.549Z,26.40
2018-09-21T10:42:20.690Z,26.51
2018-09-21T10:44:49.723Z,26.74
2018-09-21T10:47:18.630Z,26.78
2018-09-21T10:49:47.771Z,26.73
2018-09-21T10:52:16.967Z,26.81
2018-09-21T10:54:46.038Z,26.85
2018-09-21T10:57:15.073Z,26.91
2018-09-21T10:59:44.026Z,26.64
2018-09-21T11:02:13.432Z,26.87
2018-09-21T11:04:42.370Z,26.97
2018-09-21T11:07:11.577Z,27.03
2018-09-21T11:09:40.913Z,27.08
2018-09-21T11:12:09.928Z,27.06
2018-09-21T11:14:38.929Z,27.26
2018-09-21T11:17:08.923Z,27.57
2018-09-21T11:19:38.099Z,27.47
2018-09-21T11:22:07.225Z,27.42
2018-09-21T11:24:36.332Z,27.31
2018-09-21T11:27:05.474Z,27.75
2018-09-21T11:29:34.352Z,27.99
2018-09-21T11:32:03.658Z,27.87
2018-09-21T11:34:32.615Z,27.39
2018-09-21T11:37:01.706Z,26.91
2018-09-21T11:39:31.202Z,27.22
2018-09-21T11:42:00.203Z,27.49
2018-09-21T11:44:29.146Z,27.63
2018-09-21T11:46:58.480Z,27.31
2018-09-21T11:49:27.436Z,27.41
2018-09-21T11:51:56.378Z,27.53
2018-09-21T11:54:25.293Z,27.54
2018-09-21T11:56:54.291Z,27.52
2018-09-21T11:59:23.585Z,27.58
2018-09-21T12:01:53.025Z,27.70
2018-09-21T12:04:21.923Z,27.92
2018-09-21T12:06:51.118Z,27.85
2018-09-21T12:09:20.581Z,28.04
2018-09-21T12:11:49.680Z,28.07
2018-09-21T12:14:18.681Z,28.19
2018-09-21T12:16:47.770Z,28.12
2018-09-21T12:19:16.633Z,27.97
2018-09-21T12:21:45.450Z,28.08
2018-09-21T12:24:15.407Z,27.93
2018-09-21T12:26:44.323Z,27.80
2018-09-21T12:29:13.213Z,27.82
2018-09-21T12:31:42.539Z,27.86
2018-09-21T12:34:11.503Z,27.71
2018-09-21T12:36:40.518Z,27.87
2018-09-21T12:39:12.153Z,27.96
2018-09-21T12:41:41.157Z,27.79
2018-09-21T12:44:11.089Z,27.86
2018-09-21T12:46:40.605Z,27.54
2018-09-21T12:49:09.528Z,27.60
2018-09-21T12:51:38.696Z,27.95
2018-09-21T12:54:08.244Z,27.95
2018-09-21T12:56:37.312Z,27.93
2018-09-21T12:59:06.290Z,27.95
2018-09-21T13:01:35.715Z,27.84
2018-09-21T13:04:04.568Z,28.03
2018-09-21T13:06:33.552Z,28.25
2018-09-21T13:09:02.403Z,27.75
2018-09-21T13:11:31.456Z,27.76
2018-09-21T13:14:00.454Z,27.92
2018-09-21T13:16:29.862Z,27.74
2018-09-21T13:18:58.864Z,27.76
2018-09-21T13:21:28.034Z,27.65
2018-09-21T13:23:57.370Z,27.65
2018-09-21T13:26:26.311Z,27.66
2018-09-21T13:28:55.373Z,27.73
2018-09-21T13:31:24.657Z,27.98
2018-09-21T13:33:53.751Z,27.98
2018-09-21T13:36:22.771Z,28.03
2018-09-21T13:38:51.869Z,27.81
2018-09-21T13:41:20.855Z,27.62
2018-09-21T13:43:49.738Z,27.43
2018-09-21T13:46:18.582Z,27.52
2018-09-21T13:48:47.519Z,27.54
2018-09-21T13:51:16.495Z,27.69
2018-09-21T13:53:45.700Z,27.81
2018-09-21T13:56:14.792Z,27.81
2018-09-21T13:59:46.845Z,27.77
2018-09-21T14:02:15.919Z,28.04
2018-09-21T14:04:44.936Z,27.82
2018-09-21T14:07:14.321Z,27.84
2018-09-21T14:09:48.769Z,27.93
2018-09-21T14:12:18.002Z,27.98
2018-09-21T14:14:46.967Z,28.09
2018-09-21T14:17:16.018Z,28.04
2018-09-21T14:19:45.059Z,27.83
2018-09-21T14:22:14.248Z,27.50
2018-09-21T14:24:43.354Z,27.45
2018-09-21T14:27:12.561Z,27.44
2018-09-21T14:29:42.809Z,27.62
2018-09-21T14:32:11.967Z,27.74
2018-09-21T14:34:41.606Z,27.75
2018-09-21T14:37:10.581Z,27.65
2018-09-21T14:39:39.736Z,27.39
2018-09-21T14:42:09.069Z,27.58
2018-09-21T14:44:37.995Z,27.45
2018-09-21T14:47:07.363Z,27.52
2018-09-21T14:49:36.944Z,27.34
2018-09-21T14:52:05.846Z,27.36
2018-09-21T14:54:34.809Z,27.45
2018-09-21T14:57:03.905Z,27.21
2018-09-21T14:59:33.085Z,27.09
2018-09-21T15:02:02.000Z,27.09
2018-09-21T15:04:31.102Z,27.16
2018-09-21T15:07:00.054Z,27.09
2018-09-21T15:09:29.651Z,27.06
2018-09-21T15:11:58.784Z,26.87
2018-09-21T15:14:27.716Z,26.78
2018-09-21T15:16:56.569Z,26.82
2018-09-21T15:19:25.569Z,26.75
2018-09-21T15:21:54.697Z,26.69
2018-09-21T15:24:23.700Z,26.74
2018-09-21T15:26:53.131Z,26.71
2018-09-21T15:29:22.054Z,26.73
2018-09-21T15:31:51.084Z,26.58
2018-09-21T15:34:20.392Z,26.44
2018-09-21T15:36:49.392Z,26.48
2018-09-21T15:39:18.490Z,26.49
2018-09-21T15:41:48.654Z,26.42
2018-09-21T15:44:17.666Z,26.47
2018-09-21T15:46:46.816Z,26.39
2018-09-21T15:49:16.261Z,26.35
2018-09-21T15:51:45.403Z,26.28
2018-09-21T15:54:14.509Z,26.22
2018-09-21T15:56:43.983Z,26.19
2018-09-21T15:59:13.022Z,26.15
2018-09-21T16:01:42.134Z,26.00
2018-09-21T16:04:11.885Z,26.00
2018-09-21T16:06:40.865Z,26.00
2018-09-21T16:09:09.818Z,25.90
2018-09-21T16:11:39.409Z,25.84
2018-09-21T16:14:08.691Z,25.73
2018-09-21T16:16:38.514Z,25.58
2018-09-21T16:19:07.623Z,25.52
2018-09-21T16:21:36.780Z,25.38
2018-09-21T16:24:06.378Z,25.30
2018-09-21T16:26:35.226Z,25.25
2018-09-21T16:29:05.818Z,25.19
2018-09-21T16:31:34.927Z,25.18
2018-09-21T16:34:03.906Z,25.07
2018-09-21T16:36:32.832Z,24.96
2018-09-21T16:39:03.290Z,24.88
2018-09-21T16:41:32.332Z,24.87
2018-09-21T16:44:01.334Z,24.79
2018-09-21T16:47:33.254Z,24.76
2018-09-21T16:50:02.280Z,24.66
2018-09-21T16:52:31.285Z,24.59
2018-09-21T16:55:00.576Z,24.44
2018-09-21T16:57:29.610Z,24.31
2018-09-21T16:59:58.809Z,24.13
2018-09-21T17:02:27.931Z,23.93
2018-09-21T17:04:57.138Z,23.77
2018-09-21T17:07:26.022Z,23.63
2018-09-21T17:09:55.050Z,23.52
2018-09-21T17:12:24.226Z,23.45
2018-09-21T17:14:53.200Z,23.36
2018-09-21T17:17:22.645Z,23.28
2018-09-21T17:19:51.506Z,23.20
2018-09-21T17:22:20.451Z,23.13
2018-09-21T17:24:49.368Z,23.08
2018-09-21T17:27:18.488Z,23.03
2018-09-21T17:29:47.456Z,22.98
2018-09-21T17:32:16.425Z,22.91
2018-09-21T17:34:45.545Z,22.84
2018-09-21T17:37:14.738Z,22.78
2018-09-21T17:39:43.821Z,22.76
2018-09-21T17:43:15.324Z,22.71
2018-09-21T17:45:44.494Z,22.69
2018-09-21T17:48:13.378Z,22.66
2018-09-21T17:50:42.284Z,22.65
2018-09-21T17:53:11.777Z,22.63
2018-09-21T17:55:40.700Z,22.68
2018-09-21T17:58:09.521Z,22.70
2018-09-21T18:00:39.867Z,22.73
2018-09-21T18:03:08.767Z,22.74
2018-09-21T18:05:37.750Z,22.70
2018-09-21T18:08:07.167Z,22.65
2018-09-21T18:10:36.118Z,22.59
2018-09-21T18:13:05.217Z,22.49
2018-09-21T18:15:34.374Z,22.43
2018-09-21T18:18:03.353Z,22.42
2018-09-21T18:20:32.539Z,22.44
2018-09-21T18:23:01.562Z,22.41
2018-09-21T18:25:30.725Z,22.30
2018-09-21T18:27:59.859Z,22.22
2018-09-21T18:30:29.067Z,22.18
2018-09-21T18:32:58.273Z,22.13
2018-09-21T18:35:27.248Z,22.09
2018-09-21T18:37:56.693Z,22.15
2018-09-21T18:40:25.533Z,22.11
2018-09-21T18:42:54.521Z,22.05
2018-09-21T18:45:23.473Z,22.01
2018-09-21T18:47:52.676Z,21.97
2018-09-21T18:50:21.843Z,21.87
2018-09-21T18:52:51.426Z,21.77
2018-09-21T18:55:20.413Z,21.70
2018-09-21T18:57:49.371Z,21.62
2018-09-21T19:00:18.792Z,21.61
2018-09-21T19:02:47.849Z,21.54
2018-09-21T19:05:16.900Z,21.47
2018-09-21T19:07:46.176Z,21.42
2018-09-21T19:10:16.032Z,21.39
2018-09-21T19:12:44.973Z,21.41
2018-09-21T19:15:13.989Z,21.36
2018-09-21T19:17:43.079Z,21.38
2018-09-21T19:20:12.091Z,21.38
2018-09-21T19:22:42.160Z,21.31
2018-09-21T19:25:11.039Z,21.18
2018-09-21T19:27:40.032Z,21.14
2018-09-21T19:30:09.941Z,21.14
2018-09-21T19:32:38.990Z,21.17
2018-09-21T19:35:07.902Z,21.24
2018-09-21T19:37:37.330Z,21.14
2018-09-21T19:40:06.471Z,21.04
2018-09-21T19:42:35.363Z,21.06
2018-09-21T19:45:04.657Z,21.06
2018-09-21T19:47:33.603Z,21.11
2018-09-21T19:50:02.695Z,20.95
2018-09-21T19:52:32.308Z,20.90
2018-09-21T19:55:01.240Z,20.80
2018-09-21T19:57:30.151Z,20.70
2018-09-21T20:00:00.618Z,20.69
2018-09-21T20:02:29.465Z,20.84
2018-09-21T20:04:58.529Z,20.91
2018-09-21T20:07:27.756Z,20.97
2018-09-21T20:09:56.785Z,20.89
2018-09-21T20:12:25.797Z,20.86
2018-09-21T20:14:54.947Z,20.82
2018-09-21T20:17:23.909Z,20.84
2018-09-21T20:19:52.965Z,20.71
2018-09-21T20:22:22.241Z,20.57
2018-09-21T20:24:51.104Z,20.44
2018-09-21T20:27:20.033Z,20.36
2018-09-21T20:29:49.111Z,20.33
2018-09-21T20:32:23.178Z,20.23
2018-09-21T20:34:52.302Z,20.23
2018-09-21T20:37:21.425Z,20.25
2018-09-21T20:39:50.469Z,20.27
2018-09-21T20:42:19.596Z,20.38
2018-09-21T20:44:48.634Z,20.29
2018-09-21T20:47:17.910Z,20.21
2018-09-21T20:49:46.865Z,20.12
2018-09-21T20:52:15.813Z,20.21
2018-09-21T20:54:45.139Z,20.08
2018-09-21T20:57:13.929Z,20.00
2018-09-21T20:59:43.061Z,19.96
2018-09-21T21:02:12.062Z,19.87
2018-09-21T21:04:40.895Z,19.81
2018-09-21T21:07:09.326Z,19.87
2018-09-21T21:09:38.417Z,20.03
2018-09-21T21:12:07.333Z,20.06
2018-09-21T21:14:36.213Z,19.95
2018-09-21T21:17:05.769Z,19.86
2018-09-21T21:19:34.738Z,19.82
2018-09-21T21:22:03.858Z,19.78
2018-09-21T21:24:33.237Z,19.68
2018-09-21T21:27:02.115Z,19.61
2018-09-21T21:29:31.349Z,19.66
2018-09-21T21:32:00.304Z,19.61
2018-09-21T21:34:29.199Z,19.53
2018-09-21T21:36:58.105Z,19.54
2018-09-21T21:39:27.391Z,19.54
2018-09-21T21:41:56.232Z,19.45
2018-09-21T21:44:25.357Z,19.38
2018-09-21T21:46:54.666Z,19.34
2018-09-21T21:49:23.532Z,19.23
2018-09-21T21:51:52.533Z,19.20
2018-09-21T21:54:21.957Z,19.16
2018-09-21T21:56:50.876Z,19.13
2018-09-21T21:59:20.129Z,19.11
2018-09-21T22:01:50.042Z,19.07
2018-09-21T22:04:19.440Z,19.00
2018-09-21T22:06:48.648Z,18.96
2018-09-21T22:09:17.589Z,19.04
2018-09-21T22:12:54.459Z,18.91
2018-09-21T22:15:23.881Z,18.85
2018-09-21T22:17:52.917Z,18.81
2018-09-21T22:20:21.979Z,18.77
2018-09-21T22:22:51.012Z,18.74
2018-09-21T22:25:19.836Z,18.68
2018-09-21T22:27:48.825Z,18.58
2018-09-21T22:30:17.938Z,18.52
2018-09-21T22:32:46.898Z,18.50
2018-09-21T22:35:15.821Z,18.49
2018-09-21T22:37:44.796Z,18.52
2018-09-21T22:40:13.900Z,18.41
2018-09-21T22:42:43.057Z,18.33
2018-09-21T22:45:12.013Z,18.32
2018-09-21T22:47:41.007Z,18.21
2018-09-21T22:50:10.048Z,18.21
2018-09-21T22:52:39.040Z,18.24
2018-09-21T22:55:08.083Z,18.21
2018-09-21T22:57:37.109Z,18.19
2018-09-21T23:00:06.541Z,18.13
2018-09-21T23:02:35.448Z,18.03
2018-09-21T23:05:04.540Z,18.01
2018-09-21T23:07:33.402Z,18.03
2018-09-21T23:10:02.428Z,18.04
2018-09-21T23:12:31.496Z,18.07
2018-09-21T23:15:00.586Z,18.04
2018-09-21T23:17:29.585Z,17.96
2018-09-21T23:19:58.422Z,17.86
2018-09-21T23:22:27.346Z,17.87
2018-09-21T23:24:56.206Z,17.83
2018-09-21T23:27:25.063Z,17.76
2018-09-21T23:29:54.469Z,17.72
2018-09-21T23:32:23.337Z,17.71
2018-09-21T23:34:52.236Z,17.64
2018-09-21T23:37:21.232Z,17.74
2018-09-21T23:39:50.117Z,17.70
2018-09-21T23:42:18.993Z,17.64
2018-09-21T23:44:47.897Z,17.64
2018-09-21T23:47:16.822Z,17.62
2018-09-21T23:49:45.659Z,17.57
2018-09-21T23:52:14.944Z,17.48
2018-09-21T23:54:44.234Z,17.41
2018-09-21T23:57:13.276Z,17.30
2018-09-21T23:59:42.381Z,17.22
